Time;durP1;ratioP1;P1;durP2;ratioP2;P2;SDS_P1;SDS_P2;PMS_P1;PMS_P2;Temp;Humidity;BMP_temperature;BMP_pressure;BME280_temperature;BME280_humidity;BME280_pressure;Samples;Min_cycle;Max_cycle;Signal;HPM_P1;HPM_P2
2022/10/22 00:02:50;;;;;;;85.72;44.45;;;;;;;;;;9985614;28;20050;-74
2022/10/22 00:07:44;;;;;;;78.25;43.88;;;;;;;;;;9985800;28;20505;-74
2022/10/22 00:12:38;;;;;;;86.65;44.00;;;;;;;;;;9985353;28;20461;-74
2022/10/22 00:17:30;;;;;;;76.07;40.28;;;;;;;;;;9985258;28;20065;-73
2022/10/22 00:22:24;;;;;;;63.75;38.47;;;;;;;;;;9985325;28;20062;-74
2022/10/22 00:27:18;;;;;;;69.78;39.50;;;;;;;;;;9986417;28;20104;-73
2022/10/22 00:32:11;;;;;;;74.13;40.88;;;;;;;;;;9985603;28;20057;-73
2022/10/22 00:37:06;;;;;;;82.22;44.35;;;;;;;;;;9985579;28;20488;-73
2022/10/22 00:42:00;;;;;;;73.38;44.38;;;;;;;;;;9985949;28;20128;-73
2022/10/22 00:46:53;;;;;;;69.28;40.45;;;;;;;;;;9991095;28;20069;-73
2022/10/22 00:51:47;;;;;;;65.20;41.97;;;;;;;;;;9992433;28;20073;-73
2022/10/22 00:56:42;;;;;;;79.85;42.63;;;;;;;;;;9993197;28;20078;-73
2022/10/22 01:01:36;;;;;;;72.78;40.97;;;;;;;;;;9992134;28;20065;-73
2022/10/22 01:06:31;;;;;;;79.15;40.47;;;;;;;;;;9991705;28;20524;-73
2022/10/22 01:11:39;;;;;;;65.35;38.58;;;;;;;;;;10006456;28;20387;-73
2022/10/22 01:16:48;;;;;;;68.77;38.93;;;;;;;;;;9983616;28;20120;-73
2022/10/22 01:21:45;;;;;;;59.53;36.90;;;;;;;;;;9991641;28;20084;-73
2022/10/22 01:26:57;;;;;;;40.35;24.48;;;;;;;;;;10005923;28;20054;-74
2022/10/22 01:32:04;;;;;;;36.10;20.73;;;;;;;;;;9981243;28;20054;-74
2022/10/22 01:36:58;;;;;;;29.77;17.35;;;;;;;;;;9991248;28;20051;-73
2022/10/22 01:41:54;;;;;;;26.23;16.92;;;;;;;;;;9990904;28;20067;-73
2022/10/22 01:47:09;;;;;;;26.92;14.77;;;;;;;;;;9990612;28;20061;-73
2022/10/22 01:52:28;;;;;;;26.02;15.82;;;;;;;;;;9990189;28;20061;-73
2022/10/22 01:57:40;;;;;;;27.73;15.87;;;;;;;;;;9989817;28;20054;-73
2022/10/22 02:03:03;;;;;;;24.83;14.88;;;;;;;;;;9988741;28;20792;-74
2022/10/22 02:08:05;;;;;;;29.73;17.98;;;;;;;;;;9983563;28;20387;-73
2022/10/22 02:13:00;;;;;;;25.85;15.60;;;;;;;;;;9988710;28;20077;-73
2022/10/22 02:17:55;;;;;;;28.23;17.08;;;;;;;;;;9989037;28;20122;-74
2022/10/22 02:22:49;;;;;;;26.10;15.70;;;;;;;;;;9989518;28;20081;-73
2022/10/22 02:27:43;;;;;;;45.00;16.70;;;;;;;;;;9989760;28;20055;-74
2022/10/22 02:33:22;;;;;;;20.50;12.25;;;;;;;;;;10003500;28;20394;-74
2022/10/22 02:38:15;;;;;;;19.60;11.57;;;;;;;;;;9987333;28;20058;-73
2022/10/22 02:43:09;;;;;;;14.85;10.40;;;;;;;;;;9987504;28;20053;-74
2022/10/22 02:48:04;;;;;;;15.63;11.18;;;;;;;;;;9988921;28;20084;-74
2022/10/22 02:52:57;;;;;;;15.07;10.40;;;;;;;;;;9988285;28;20104;-73
2022/10/22 02:57:51;;;;;;;18.30;9.50;;;;;;;;;;9988926;28;20418;-73
2022/10/22 03:02:45;;;;;;;17.20;8.77;;;;;;;;;;9986982;28;20108;-73
2022/10/22 03:07:39;;;;;;;14.07;7.88;;;;;;;;;;9987667;28;20513;-73
2022/10/22 03:12:32;;;;;;;13.98;7.18;;;;;;;;;;9987726;28;20051;-74
2022/10/22 03:17:27;;;;;;;9.15;5.88;;;;;;;;;;9987284;28;20513;-74
2022/10/22 03:22:40;;;;;;;11.20;6.85;;;;;;;;;;9987291;28;20506;-73
2022/10/22 03:27:35;;;;;;;16.00;6.28;;;;;;;;;;9988791;28;20046;-73
2022/10/22 03:32:29;;;;;;;12.45;6.13;;;;;;;;;;9986214;28;20062;-73
2022/10/22 03:37:24;;;;;;;22.27;6.15;;;;;;;;;;9986521;28;20058;-73
2022/10/22 03:42:18;;;;;;;8.35;5.40;;;;;;;;;;9986838;28;20082;-75
2022/10/22 03:47:11;;;;;;;21.52;5.35;;;;;;;;;;9977477;28;20468;-75
2022/10/22 03:52:09;;;;;;;15.60;5.72;;;;;;;;;;9986488;28;20082;-73
2022/10/22 03:57:06;;;;;;;14.02;6.07;;;;;;;;;;9986230;28;20104;-74
2022/10/22 04:01:59;;;;;;;15.57;5.95;;;;;;;;;;9985950;28;20058;-74
2022/10/22 04:06:52;;;;;;;15.70;5.65;;;;;;;;;;9986087;28;20043;-74
2022/10/22 04:11:46;;;;;;;19.40;4.05;;;;;;;;;;9986267;28;20057;-74
2022/10/22 04:16:40;;;;;;;20.25;7.25;;;;;;;;;;9986077;28;20046;-74
2022/10/22 04:21:35;;;;;;;18.73;5.13;;;;;;;;;;9993788;28;20065;-73
2022/10/22 04:26:29;;;;;;;12.63;4.90;;;;;;;;;;9994066;28;20074;-73
2022/10/22 04:31:24;;;;;;;14.80;4.63;;;;;;;;;;9993946;28;20050;-73
2022/10/22 04:36:18;;;;;;;18.67;5.88;;;;;;;;;;9993901;28;20084;-73
2022/10/22 04:41:13;;;;;;;15.88;4.55;;;;;;;;;;9992971;28;20054;-73
2022/10/22 04:46:08;;;;;;;14.88;4.55;;;;;;;;;;9993239;28;20553;-73
2022/10/22 04:51:01;;;;;;;17.90;4.65;;;;;;;;;;9992792;28;20138;-73
2022/10/22 04:56:04;;;;;;;20.17;5.50;;;;;;;;;;9992640;28;20129;-73
2022/10/22 05:00:59;;;;;;;17.77;5.45;;;;;;;;;;9992626;28;20140;-75
2022/10/22 05:05:53;;;;;;;10.63;4.97;;;;;;;;;;9988222;28;20409;-73
2022/10/22 05:10:47;;;;;;;25.98;7.05;;;;;;;;;;9989873;28;20050;-73
2022/10/22 05:15:41;;;;;;;15.43;4.75;;;;;;;;;;9985652;28;20122;-73
2022/10/22 05:20:34;;;;;;;14.45;5.40;;;;;;;;;;9983614;28;20081;-73
2022/10/22 05:25:28;;;;;;;13.88;4.10;;;;;;;;;;9983045;28;20081;-73
2022/10/22 05:30:22;;;;;;;18.65;4.88;;;;;;;;;;9978099;28;20070;-73
2022/10/22 05:35:16;;;;;;;26.40;7.35;;;;;;;;;;9972894;28;20141;-73
2022/10/22 05:40:11;;;;;;;12.90;4.82;;;;;;;;;;9987158;28;20089;-73
2022/10/22 05:45:19;;;;;;;12.80;4.38;;;;;;;;;;9987062;28;20078;-75
2022/10/22 05:50:14;;;;;;;12.52;4.68;;;;;;;;;;9979968;28;20054;-72
2022/10/22 05:55:09;;;;;;;13.63;3.95;;;;;;;;;;9983206;28;20113;-73
2022/10/22 06:00:04;;;;;;;11.77;3.70;;;;;;;;;;9984696;28;20608;-72
2022/10/22 06:04:59;;;;;;;12.48;3.35;;;;;;;;;;9983493;28;20054;-74
2022/10/22 06:09:53;;;;;;;12.35;3.58;;;;;;;;;;9979239;28;20486;-74
2022/10/22 06:14:47;;;;;;;9.93;3.50;;;;;;;;;;9986854;28;20070;-74
2022/10/22 06:19:41;;;;;;;11.68;4.10;;;;;;;;;;9981777;28;20090;-73
2022/10/22 06:24:35;;;;;;;19.67;4.40;;;;;;;;;;9980692;28;20116;-74
2022/10/22 06:29:33;;;;;;;15.13;3.38;;;;;;;;;;9979876;28;20112;-73
2022/10/22 06:34:28;;;;;;;14.05;3.90;;;;;;;;;;9975442;28;20073;-73
2022/10/22 06:39:21;;;;;;;9.75;4.00;;;;;;;;;;9972636;28;20133;-74
2022/10/22 06:44:16;;;;;;;13.50;4.32;;;;;;;;;;9979685;28;20081;-71
2022/10/22 06:49:14;;;;;;;17.55;4.47;;;;;;;;;;9981139;28;20060;-73
2022/10/22 06:54:08;;;;;;;8.35;3.65;;;;;;;;;;9984714;28;20058;-73
2022/10/22 06:59:02;;;;;;;18.05;6.03;;;;;;;;;;9978582;28;20050;-73
2022/10/22 07:03:58;;;;;;;12.57;4.53;;;;;;;;;;9976889;28;20069;-72
2022/10/22 07:08:51;;;;;;;19.27;4.32;;;;;;;;;;9964907;28;20101;-69
2022/10/22 07:13:45;;;;;;;13.52;4.03;;;;;;;;;;9951996;28;20054;-71
2022/10/22 07:18:39;;;;;;;20.02;5.30;;;;;;;;;;9957832;28;20054;-72
2022/10/22 07:23:32;;;;;;;12.98;4.25;;;;;;;;;;9956912;28;20054;-71
2022/10/22 07:28:27;;;;;;;18.75;4.47;;;;;;;;;;9951878;28;20120;-70
2022/10/22 07:33:21;;;;;;;11.75;3.30;;;;;;;;;;9950546;28;20054;-71
2022/10/22 07:38:16;;;;;;;13.68;4.25;;;;;;;;;;9953099;28;20510;-73
2022/10/22 07:43:10;;;;;;;15.15;3.90;;;;;;;;;;9951461;28;20076;-72
2022/10/22 07:48:05;;;;;;;9.82;5.13;;;;;;;;;;9953434;28;20059;-73
2022/10/22 07:52:59;;;;;;;18.98;5.53;;;;;;;;;;9976140;28;20069;-72
2022/10/22 07:57:53;;;;;;;17.55;5.55;;;;;;;;;;9980639;28;20089;-71
2022/10/22 08:02:47;;;;;;;17.52;4.88;;;;;;;;;;9980075;28;20050;-70
2022/10/22 08:07:41;;;;;;;13.70;4.55;;;;;;;;;;9979233;28;20054;-69
2022/10/22 08:12:35;;;;;;;21.50;5.75;;;;;;;;;;9978232;28;20049;-71
2022/10/22 08:17:29;;;;;;;17.40;4.93;;;;;;;;;;9977538;28;20054;-69
2022/10/22 08:22:23;;;;;;;34.97;7.43;;;;;;;;;;9952640;28;20058;-72
2022/10/22 08:27:17;;;;;;;16.42;6.35;;;;;;;;;;9955770;28;20086;-69
2022/10/22 08:32:11;;;;;;;19.63;5.72;;;;;;;;;;9974226;28;20070;-70
2022/10/22 08:37:04;;;;;;;20.90;6.15;;;;;;;;;;9976935;28;20413;-72
2022/10/22 08:42:30;;;;;;;10.30;4.55;;;;;;;;;;9971624;28;20109;-71
2022/10/22 08:47:33;;;;;;;16.42;6.10;;;;;;;;;;9971241;28;20051;-71
2022/10/22 08:52:27;;;;;;;13.25;6.07;;;;;;;;;;9961520;28;20142;-71
2022/10/22 08:57:44;;;;;;;14.45;8.32;;;;;;;;;;9955371;28;20452;-71
2022/10/22 09:03:10;;;;;;;28.88;12.00;;;;;;;;;;9971057;28;20116;-78
2022/10/22 09:08:08;;;;;;;24.15;9.18;;;;;;;;;;9972529;28;20539;-74
2022/10/22 09:13:02;;;;;;;25.35;9.38;;;;;;;;;;9966447;28;20089;-76
2022/10/22 09:18:39;;;;;;;21.60;8.35;;;;;;;;;;9981673;28;20050;-78
2022/10/22 09:23:39;;;;;;;19.85;7.22;;;;;;;;;;9974029;28;20050;-77
2022/10/22 09:28:33;;;;;;;16.73;5.32;;;;;;;;;;9989553;28;20144;-78
2022/10/22 09:33:29;;;;;;;11.40;5.20;;;;;;;;;;9987652;28;20053;-68
2022/10/22 09:38:30;;;;;;;21.88;4.72;;;;;;;;;;9990539;28;20058;-75
2022/10/22 09:43:24;;;;;;;14.82;6.25;;;;;;;;;;9986017;28;20104;-77
2022/10/22 09:48:26;;;;;;;16.05;7.28;;;;;;;;;;9988303;28;20731;-73
2022/10/22 09:53:37;;;;;;;17.20;6.07;;;;;;;;;;9986244;28;20053;-75
2022/10/22 09:58:41;;;;;;;13.25;4.80;;;;;;;;;;9989841;28;20050;-77
2022/10/22 10:03:35;;;;;;;10.15;7.15;;;;;;;;;;9990636;28;20078;-75
2022/10/22 10:08:29;;;;;;;17.83;8.80;;;;;;;;;;9979920;28;20498;-74
2022/10/22 10:13:22;;;;;;;12.43;9.55;;;;;;;;;;9988284;28;20058;-74
2022/10/22 10:18:34;;;;;;;15.15;9.75;;;;;;;;;;9989173;28;20405;-75
2022/10/22 10:23:53;;;;;;;21.65;8.48;;;;;;;;;;9988322;28;20066;-76
2022/10/22 10:29:17;;;;;;;16.90;8.50;;;;;;;;;;9990217;28;20071;-76
2022/10/22 10:34:17;;;;;;;10.93;7.55;;;;;;;;;;9981018;28;20062;-76
2022/10/22 10:39:41;;;;;;;23.27;7.78;;;;;;;;;;9989264;28;20059;-76
2022/10/22 10:45:12;;;;;;;12.52;7.18;;;;;;;;;;9974548;28;20053;-76
2022/10/22 10:50:17;;;;;;;13.18;8.27;;;;;;;;;;9985587;28;20046;-74
2022/10/22 10:55:21;;;;;;;23.02;9.05;;;;;;;;;;9988124;28;20054;-74
2022/10/22 11:00:18;;;;;;;13.27;7.82;;;;;;;;;;9986732;28;20096;-74
2022/10/22 11:05:25;;;;;;;17.00;8.43;;;;;;;;;;9963580;28;20137;-74
2022/10/22 11:10:41;;;;;;;22.02;8.13;;;;;;;;;;9983730;28;20042;-76
2022/10/22 11:15:38;;;;;;;14.48;7.65;;;;;;;;;;9968492;28;20474;-72
2022/10/22 11:21:13;;;;;;;13.67;6.23;;;;;;;;;;9975501;28;20059;-75
2022/10/22 11:26:17;;;;;;;9.82;4.57;;;;;;;;;;9961509;28;20060;-87
2022/10/22 11:31:16;;;;;;;12.57;3.28;;;;;;;;;;9973185;28;20065;-76
2022/10/22 11:36:09;;;;;;;;;;;;;;;;;;9976725;28;20058;-76
2022/10/22 11:41:07;;;;;;;13.55;3.17;;;;;;;;;;9989464;28;19928;-76
2022/10/22 11:46:20;;;;;;;11.37;2.73;;;;;;;;;;9992969;28;20124;-75
2022/10/22 11:51:36;;;;;;;10.80;3.33;;;;;;;;;;9976844;28;20316;-72
2022/10/22 11:56:38;;;;;;;6.63;2.97;;;;;;;;;;9971625;28;20551;-70
2022/10/22 12:01:42;;;;;;;8.82;4.38;;;;;;;;;;9962382;28;20424;-78
2022/10/22 12:07:01;;;;;;;12.40;6.15;;;;;;;;;;9955495;28;20050;-72
2022/10/22 12:12:10;;;;;;;9.48;5.65;;;;;;;;;;9955295;28;20129;-71
2022/10/22 12:17:06;;;;;;;11.00;4.47;;;;;;;;;;9959624;28;20063;-72
2022/10/22 12:22:12;;;;;;;6.45;3.92;;;;;;;;;;9960333;28;20074;-72
2022/10/22 12:27:46;;;;;;;14.65;5.25;;;;;;;;;;9961244;28;20477;-71
2022/10/22 12:32:40;;;;;;;21.58;13.23;;;;;;;;;;9945616;28;20046;-74
2022/10/22 12:37:36;;;;;;;18.05;12.27;;;;;;;;;;9967413;28;20082;-73
2022/10/22 12:42:30;;;;;;;17.52;11.88;;;;;;;;;;9991981;28;20061;-72
2022/10/22 12:47:23;;;;;;;16.38;12.02;;;;;;;;;;9993846;28;20050;-71
2022/10/22 12:52:19;;;;;;;27.13;11.82;;;;;;;;;;9993729;28;20046;-72
2022/10/22 12:57:15;;;;;;;38.30;12.15;;;;;;;;;;9991151;28;20097;-71
2022/10/22 13:02:15;;;;;;;24.67;12.38;;;;;;;;;;9993810;28;20058;-71
2022/10/22 13:07:11;;;;;;;23.55;14.20;;;;;;;;;;9992906;28;20422;-72
2022/10/22 13:12:05;;;;;;;58.95;17.42;;;;;;;;;;9992897;28;20057;-71
2022/10/22 13:17:19;;;;;;;25.88;14.43;;;;;;;;;;9991061;28;20086;-71
2022/10/22 13:22:31;;;;;;;24.48;13.80;;;;;;;;;;9991291;28;20062;-71
2022/10/22 13:27:27;;;;;;;20.23;11.15;;;;;;;;;;9991117;28;20505;-65
2022/10/22 13:32:31;;;;;;;21.27;12.25;;;;;;;;;;9991248;28;20050;-65
2022/10/22 13:37:27;;;;;;;25.85;14.10;;;;;;;;;;9989984;28;20054;-65
2022/10/22 13:42:21;;;;;;;18.55;12.48;;;;;;;;;;9989366;28;20074;-65
2022/10/22 13:47:28;;;;;;;26.73;13.93;;;;;;;;;;9990282;28;20054;-65
2022/10/22 13:52:47;;;;;;;27.15;13.77;;;;;;;;;;9981180;28;20046;-64
2022/10/22 13:57:41;;;;;;;23.88;15.13;;;;;;;;;;9984589;28;20069;-65
2022/10/22 14:02:34;;;;;;;19.90;16.15;;;;;;;;;;9990453;28;20124;-64
2022/10/22 14:07:29;;;;;;;23.17;15.00;;;;;;;;;;9988251;28;20501;-65
2022/10/22 14:12:24;;;;;;;19.88;15.35;;;;;;;;;;9989043;28;20070;-65
2022/10/22 14:17:18;;;;;;;29.67;15.43;;;;;;;;;;9990933;28;20057;-64
2022/10/22 14:22:14;;;;;;;27.63;16.17;;;;;;;;;;9988655;28;20065;-64
2022/10/22 14:27:10;;;;;;;22.05;15.27;;;;;;;;;;9986740;28;20480;-60
2022/10/22 14:32:10;;;;;;;23.52;14.63;;;;;;;;;;10005025;28;20046;-72
2022/10/22 14:37:05;;;;;;;20.90;14.68;;;;;;;;;;9979527;28;20050;-71
2022/10/22 14:41:58;;;;;;;20.75;14.43;;;;;;;;;;9981141;28;20081;-71
2022/10/22 14:46:55;;;;;;;29.25;15.07;;;;;;;;;;9976997;28;20073;-70
2022/10/22 14:51:49;;;;;;;26.35;14.88;;;;;;;;;;9977612;28;20054;-71
2022/10/22 14:56:43;;;;;;;22.23;14.77;;;;;;;;;;9982225;28;20047;-74
2022/10/22 15:01:38;;;;;;;27.55;16.00;;;;;;;;;;9977858;28;20034;-71
2022/10/22 15:06:32;;;;;;;35.17;18.67;;;;;;;;;;9978054;28;20129;-74
2022/10/22 15:11:26;;;;;;;30.63;15.68;;;;;;;;;;9979110;28;20403;-70
2022/10/22 15:16:20;;;;;;;32.50;16.23;;;;;;;;;;9981504;28;20513;-69
2022/10/22 15:21:17;;;;;;;27.10;15.27;;;;;;;;;;9977391;28;20060;-67
2022/10/22 15:26:12;;;;;;;21.55;16.77;;;;;;;;;;9981309;28;20492;-69
2022/10/22 15:31:07;;;;;;;21.85;15.00;;;;;;;;;;9980932;28;20076;-67
2022/10/22 15:36:12;;;;;;;23.30;16.73;;;;;;;;;;9974293;28;20140;-62
2022/10/22 15:41:08;;;;;;;30.00;17.23;;;;;;;;;;9979514;28;20097;-73
2022/10/22 15:46:20;;;;;;;24.70;16.77;;;;;;;;;;9994436;28;20564;-68
2022/10/22 15:51:17;;;;;;;27.73;17.00;;;;;;;;;;9974521;28;20082;-72
2022/10/22 15:56:21;;;;;;;26.95;17.33;;;;;;;;;;9988537;28;20085;-73
2022/10/22 16:01:23;;;;;;;26.17;15.60;;;;;;;;;;9975847;28;20382;-70
2022/10/22 16:06:20;;;;;;;28.00;16.40;;;;;;;;;;9989066;28;20089;-71
2022/10/22 16:11:20;;;;;;;25.13;17.70;;;;;;;;;;9978345;28;20057;-72
2022/10/22 16:16:18;;;;;;;25.98;19.13;;;;;;;;;;9998232;28;20078;-69
2022/10/22 16:21:16;;;;;;;27.20;18.52;;;;;;;;;;9985362;28;20133;-71
2022/10/22 16:26:16;;;;;;;33.25;18.55;;;;;;;;;;9983112;28;20046;-73
2022/10/22 16:31:12;;;;;;;29.38;17.92;;;;;;;;;;10000192;28;20046;-71
2022/10/22 16:36:29;;;;;;;30.77;18.42;;;;;;;;;;9982487;28;20513;-71
2022/10/22 16:41:34;;;;;;;39.95;17.98;;;;;;;;;;9984610;28;20050;-69
2022/10/22 16:46:33;;;;;;;34.92;18.98;;;;;;;;;;9973022;28;20065;-72
2022/10/22 16:51:35;;;;;;;32.95;19.95;;;;;;;;;;9969331;28;20054;-70
2022/10/22 16:56:32;;;;;;;30.92;21.13;;;;;;;;;;9970945;28;20182;-73
2022/10/22 17:01:28;;;;;;;34.55;18.50;;;;;;;;;;9984414;28;20493;-71
2022/10/22 17:06:24;;;;;;;30.23;18.70;;;;;;;;;;9985282;28;20058;-69
2022/10/22 17:11:20;;;;;;;28.88;19.70;;;;;;;;;;9983055;28;20394;-72
2022/10/22 17:16:18;;;;;;;34.20;20.40;;;;;;;;;;9980958;28;20051;-72
2022/10/22 17:21:12;;;;;;;29.95;18.80;;;;;;;;;;9978678;28;20090;-70
2022/10/22 17:26:11;;;;;;;26.30;21.40;;;;;;;;;;9987310;28;20085;-67
2022/10/22 17:31:30;;;;;;;36.03;20.98;;;;;;;;;;9990394;28;20077;-67
2022/10/22 17:36:25;;;;;;;32.35;18.95;;;;;;;;;;9991019;28;20393;-67
2022/10/22 17:41:29;;;;;;;31.50;20.17;;;;;;;;;;9991262;28;20464;-68
2022/10/22 17:46:24;;;;;;;27.77;18.70;;;;;;;;;;9990899;28;20053;-67
2022/10/22 17:51:19;;;;;;;28.77;20.30;;;;;;;;;;9990554;28;20053;-65
2022/10/22 17:56:16;;;;;;;42.63;27.00;;;;;;;;;;9990541;28;20058;-66
2022/10/22 18:01:46;;;;;;;36.13;20.60;;;;;;;;;;9980918;28;20046;-68
2022/10/22 18:06:42;;;;;;;39.60;23.75;;;;;;;;;;9974196;28;20054;-69
2022/10/22 18:11:39;;;;;;;47.33;33.90;;;;;;;;;;9981772;28;20421;-68
2022/10/22 18:16:33;;;;;;;33.33;26.45;;;;;;;;;;9978859;28;20055;-67
2022/10/22 18:21:28;;;;;;;30.35;22.15;;;;;;;;;;9975507;28;20161;-66
2022/10/22 18:26:23;;;;;;;26.52;19.70;;;;;;;;;;9976808;28;20145;-66
2022/10/22 18:31:21;;;;;;;27.77;17.83;;;;;;;;;;9984718;28;20046;-66
2022/10/22 18:36:18;;;;;;;26.83;19.73;;;;;;;;;;9982857;28;20046;-66
2022/10/22 18:41:15;;;;;;;35.35;23.92;;;;;;;;;;9979626;28;20085;-64
2022/10/22 18:46:13;;;;;;;41.60;21.23;;;;;;;;;;9977993;28;20050;-68
2022/10/22 18:51:10;;;;;;;25.75;17.70;;;;;;;;;;9970746;28;20054;-64
2022/10/22 18:56:06;;;;;;;48.70;21.13;;;;;;;;;;9975366;28;20054;-65
2022/10/22 19:01:06;;;;;;;24.35;19.15;;;;;;;;;;9981166;28;20485;-64
2022/10/22 19:06:01;;;;;;;25.67;19.15;;;;;;;;;;9976186;28;20133;-70
2022/10/22 19:10:55;;;;;;;31.17;22.60;;;;;;;;;;9972024;28;20053;-66
2022/10/22 19:15:49;;;;;;;32.97;21.38;;;;;;;;;;9980132;28;20050;-65
2022/10/22 19:20:43;;;;;;;31.33;21.05;;;;;;;;;;9980047;28;20379;-67
2022/10/22 19:25:38;;;;;;;34.03;23.05;;;;;;;;;;9977044;28;20401;-67
2022/10/22 19:30:34;;;;;;;27.92;22.92;;;;;;;;;;9976249;28;20136;-66
2022/10/22 19:35:29;;;;;;;32.92;23.35;;;;;;;;;;9978207;28;20046;-64
2022/10/22 19:40:24;;;;;;;25.27;18.02;;;;;;;;;;9982534;28;20461;-66
2022/10/22 19:45:17;;;;;;;32.38;21.23;;;;;;;;;;9980229;28;20119;-68
2022/10/22 19:50:12;;;;;;;50.38;21.13;;;;;;;;;;9975981;28;20061;-66
2022/10/22 19:55:08;;;;;;;30.35;23.15;;;;;;;;;;9974954;28;20424;-68
2022/10/22 20:00:05;;;;;;;37.10;22.63;;;;;;;;;;9972540;28;20046;-65
2022/10/22 20:05:01;;;;;;;31.58;20.67;;;;;;;;;;9967552;28;20710;-66
2022/10/22 20:09:58;;;;;;;28.52;20.98;;;;;;;;;;9979431;28;20051;-67
2022/10/22 20:14:52;;;;;;;36.97;21.60;;;;;;;;;;9977451;28;20058;-68
2022/10/22 20:19:46;;;;;;;37.78;20.63;;;;;;;;;;9976958;28;20051;-67
2022/10/22 20:24:40;;;;;;;33.83;22.42;;;;;;;;;;9971699;28;20093;-69
2022/10/22 20:29:34;;;;;;;33.20;21.15;;;;;;;;;;9965737;28;20046;-67
2022/10/22 20:34:28;;;;;;;35.75;20.98;;;;;;;;;;9976329;28;20054;-67
2022/10/22 20:39:22;;;;;;;35.45;20.70;;;;;;;;;;9974702;28;20134;-67
2022/10/22 20:44:17;;;;;;;31.02;19.40;;;;;;;;;;9972389;28;20058;-68
2022/10/22 20:49:14;;;;;;;38.55;22.42;;;;;;;;;;9974314;28;20133;-67
2022/10/22 20:54:09;;;;;;;30.65;21.45;;;;;;;;;;9971398;28;20046;-68
2022/10/22 20:59:06;;;;;;;36.22;21.88;;;;;;;;;;9973646;28;20062;-67
2022/10/22 21:04:00;;;;;;;30.40;23.83;;;;;;;;;;9978456;28;20098;-67
2022/10/22 21:08:53;;;;;;;36.17;24.92;;;;;;;;;;9981930;28;20073;-69
2022/10/22 21:13:48;;;;;;;31.27;21.33;;;;;;;;;;9973637;28;20565;-68
2022/10/22 21:18:41;;;;;;;42.30;24.90;;;;;;;;;;9975620;28;20050;-68
2022/10/22 21:23:36;;;;;;;42.15;24.33;;;;;;;;;;9988748;28;20054;-69
2022/10/22 21:28:31;;;;;;;36.72;25.50;;;;;;;;;;9979868;28;20054;-69
2022/10/22 21:33:25;;;;;;;45.53;25.88;;;;;;;;;;9996897;28;20145;-68
2022/10/22 21:38:19;;;;;;;43.97;26.42;;;;;;;;;;9987196;28;20078;-68
2022/10/22 21:43:14;;;;;;;34.85;23.83;;;;;;;;;;9985036;28;20506;-69
2022/10/22 21:48:08;;;;;;;37.38;25.85;;;;;;;;;;9985669;28;20058;-69
2022/10/22 21:53:02;;;;;;;33.10;24.67;;;;;;;;;;9985929;28;20042;-68
2022/10/22 21:57:56;;;;;;;37.95;23.75;;;;;;;;;;9985430;28;20073;-69
2022/10/22 22:02:50;;;;;;;37.15;22.00;;;;;;;;;;9979270;28;20505;-68
2022/10/22 22:07:44;;;;;;;41.15;25.23;;;;;;;;;;9983745;28;20470;-68
2022/10/22 22:12:37;;;;;;;33.40;26.48;;;;;;;;;;9982909;28;20058;-68
2022/10/22 22:17:31;;;;;;;42.35;29.55;;;;;;;;;;9983002;28;20073;-68
2022/10/22 22:22:26;;;;;;;39.78;29.63;;;;;;;;;;9984391;28;20081;-68
2022/10/22 22:27:20;;;;;;;41.65;27.45;;;;;;;;;;9986245;28;20054;-68
2022/10/22 22:32:14;;;;;;;46.00;30.65;;;;;;;;;;9980316;28;20395;-68
2022/10/22 22:37:08;;;;;;;46.85;30.35;;;;;;;;;;9978107;28;20046;-68
2022/10/22 22:42:01;;;;;;;45.38;29.67;;;;;;;;;;9979843;28;20528;-68
2022/10/22 22:46:55;;;;;;;49.00;28.88;;;;;;;;;;9982742;28;20073;-68
2022/10/22 22:51:48;;;;;;;42.10;28.10;;;;;;;;;;9983462;28;20100;-68
2022/10/22 22:56:42;;;;;;;46.53;28.55;;;;;;;;;;9986362;28;20054;-68
2022/10/22 23:01:38;;;;;;;47.40;27.73;;;;;;;;;;9979605;28;20054;-68
2022/10/22 23:06:34;;;;;;;37.63;26.67;;;;;;;;;;9983018;28;20054;-68
2022/10/22 23:11:28;;;;;;;46.85;29.27;;;;;;;;;;9988231;28;20051;-68
2022/10/22 23:16:24;;;;;;;45.05;29.85;;;;;;;;;;9987575;28;20073;-68
2022/10/22 23:21:25;;;;;;;36.42;28.20;;;;;;;;;;9987590;28;20497;-68
2022/10/22 23:26:22;;;;;;;38.33;28.10;;;;;;;;;;9987491;28;20066;-68
2022/10/22 23:31:18;;;;;;;39.15;28.92;;;;;;;;;;9987516;28;20065;-67
2022/10/22 23:36:12;;;;;;;46.90;29.63;;;;;;;;;;9987042;28;20057;-68
2022/10/22 23:41:06;;;;;;;44.67;29.50;;;;;;;;;;9981470;28;20496;-67
2022/10/22 23:46:01;;;;;;;42.35;27.35;;;;;;;;;;9987379;28;20049;-68
2022/10/22 23:50:56;;;;;;;42.35;31.85;;;;;;;;;;9978146;28;20058;-68
2022/10/22 23:55:49;;;;;;;44.15;29.50;;;;;;;;;;9987750;28;20386;-68
